Time;durP1;ratioP1;P1;durP2;ratioP2;P2;SDS_P1;SDS_P2;PMS_P1;PMS_P2;Temp;Humidity;BMP_temperature;BMP_pressure;BME280_temperature;BME280_humidity;BME280_pressure;Samples;Min_cycle;Max_cycle;Signal;HPM_P1;HPM_P2
2023/07/22 00:01:14;;;;;;;7.07;3.60;;;16.70;71.30;;;;;;5054404;28;20506;-80
2023/07/22 00:03:40;;;;;;;5.60;3.60;;;16.60;71.60;;;;;;5062174;28;20258;-80
2023/07/22 00:06:15;;;;;;;5.30;3.07;;;16.50;72.00;;;;;;5061484;28;20195;-79
2023/07/22 00:08:40;;;;;;;4.50;3.00;;;16.50;72.10;;;;;;5051832;28;20215;-79
2023/07/22 00:11:07;;;;;;;5.80;3.50;;;16.50;72.40;;;;;;5058214;28;20486;-78
2023/07/22 00:13:33;;;;;;;6.60;3.90;;;16.40;72.70;;;;;;5041318;28;21217;-78
2023/07/22 00:15:59;;;;;;;7.93;3.50;;;16.50;72.70;;;;;;5048923;28;20431;-78
2023/07/22 00:18:27;;;;;;;4.30;2.97;;;16.50;72.60;;;;;;5051858;28;20441;-77
2023/07/22 00:20:53;;;;;;;5.03;3.30;;;16.50;72.60;;;;;;5041624;28;21138;-74
2023/07/22 00:23:19;;;;;;;6.80;3.40;;;16.50;72.60;;;;;;5049595;28;20993;-73
2023/07/22 00:25:46;;;;;;;6.30;2.80;;;16.40;73.00;;;;;;5044502;28;20425;-74
2023/07/22 00:28:11;;;;;;;5.33;3.20;;;16.40;73.20;;;;;;5044016;28;20577;-76
2023/07/22 00:30:37;;;;;;;5.77;3.07;;;16.20;73.50;;;;;;5044165;28;21067;-72
2023/07/22 00:33:02;;;;;;;5.10;3.40;;;16.10;73.90;;;;;;5041513;28;20191;-75
2023/07/22 00:35:28;;;;;;;5.33;2.87;;;16.00;74.20;;;;;;5048349;28;20195;-75
2023/07/22 00:37:54;;;;;;;6.30;2.97;;;15.90;74.50;;;;;;5049850;28;20187;-75
2023/07/22 00:40:19;;;;;;;4.90;2.97;;;15.90;74.90;;;;;;5045692;28;20570;-74
2023/07/22 00:42:45;;;;;;;6.30;3.23;;;15.90;74.90;;;;;;5038792;28;20234;-76
2023/07/22 00:45:11;;;;;;;6.00;2.90;;;15.90;75.20;;;;;;5048055;28;20671;-76
2023/07/22 00:47:36;;;;;;;6.30;3.13;;;15.80;75.50;;;;;;5050404;28;20271;-75
2023/07/22 00:50:03;;;;;;;5.77;3.20;;;15.70;75.80;;;;;;5050665;28;20677;-75
2023/07/22 00:52:29;;;;;;;6.00;3.20;;;15.60;76.10;;;;;;5047154;28;20179;-74
2023/07/22 00:54:55;;;;;;;6.40;2.90;;;15.60;76.50;;;;;;5050770;28;20772;-73
2023/07/22 00:57:21;;;;;;;9.20;3.03;;;15.50;76.40;;;;;;5048350;28;20187;-77
2023/07/22 00:59:47;;;;;;;7.33;4.27;;;15.50;76.70;;;;;;5046744;28;20459;-74
2023/07/22 01:02:13;;;;;;;5.83;3.37;;;15.40;76.70;;;;;;5043783;28;20514;-78
2023/07/22 01:04:40;;;;;;;6.57;3.53;;;15.40;76.80;;;;;;5052197;28;20513;-79
2023/07/22 01:07:07;;;;;;;6.40;3.60;;;15.40;77.10;;;;;;5049042;28;20193;-79
2023/07/22 01:09:36;;;;;;;6.90;3.50;;;15.50;77.10;;;;;;5049913;28;20496;-78
2023/07/22 01:12:02;;;;;;;6.77;3.60;;;15.40;77.10;;;;;;5042933;28;20482;-80
2023/07/22 01:14:28;;;;;;;5.77;3.20;;;15.40;77.30;;;;;;5059544;28;20451;-78
2023/07/22 01:16:54;;;;;;;5.40;3.23;;;15.40;77.30;;;;;;5061570;28;20277;-78
2023/07/22 01:19:20;;;;;;;5.27;3.50;;;15.40;77.10;;;;;;5055558;28;20222;-76
2023/07/22 01:21:46;;;;;;;6.00;3.57;;;15.30;77.60;;;;;;5041965;28;20559;-77
2023/07/22 01:24:12;;;;;;;4.87;3.40;;;15.20;77.70;;;;;;5046464;28;20439;-75
2023/07/22 01:26:38;;;;;;;5.63;3.30;;;15.20;78.10;;;;;;5042411;28;20431;-76
2023/07/22 01:29:05;;;;;;;3.20;2.90;;;15.20;78.00;;;;;;5044168;28;20260;-74
2023/07/22 01:31:34;;;;;;;7.50;3.27;;;15.20;77.80;;;;;;5044811;28;20454;-75
2023/07/22 01:34:00;;;;;;;6.23;3.63;;;15.20;77.80;;;;;;5045742;28;20428;-76
2023/07/22 01:36:25;;;;;;;5.70;3.67;;;15.10;78.10;;;;;;5050606;28;20523;-76
2023/07/22 01:38:51;;;;;;;5.23;3.57;;;15.10;78.40;;;;;;5050443;28;20175;-76
2023/07/22 01:41:16;;;;;;;5.63;3.03;;;15.10;78.60;;;;;;5044810;28;20242;-76
2023/07/22 01:43:42;;;;;;;7.00;3.33;;;15.10;78.90;;;;;;5042814;28;20190;-75
2023/07/22 01:46:08;;;;;;;11.20;3.77;;;15.10;78.90;;;;;;5050678;28;20205;-74
2023/07/22 01:48:33;;;;;;;6.40;3.60;;;15.10;78.70;;;;;;5050194;28;20232;-76
2023/07/22 01:50:59;;;;;;;4.93;2.93;;;15.20;78.60;;;;;;5045321;28;20200;-77
2023/07/22 01:53:25;;;;;;;8.20;3.67;;;15.20;78.40;;;;;;5045270;28;20282;-78
2023/07/22 01:55:50;;;;;;;6.03;4.10;;;15.10;78.30;;;;;;5055522;28;20189;-77
2023/07/22 01:58:16;;;;;;;5.50;3.50;;;15.10;78.40;;;;;;5062479;28;20458;-79
2023/07/22 02:00:42;;;;;;;5.37;3.37;;;15.00;78.90;;;;;;5059525;28;20212;-79
2023/07/22 02:03:08;;;;;;;6.90;3.03;;;15.10;78.70;;;;;;5045459;28;20190;-77
2023/07/22 02:05:33;;;;;;;8.23;3.03;;;15.10;78.40;;;;;;5054649;28;20458;-77
2023/07/22 02:07:59;;;;;;;7.87;3.97;;;15.10;78.60;;;;;;5052504;28;20284;-78
2023/07/22 02:10:24;;;;;;;5.20;3.20;;;15.00;78.70;;;;;;5049206;28;20224;-77
2023/07/22 02:12:50;;;;;;;4.53;3.27;;;15.00;78.60;;;;;;5062356;28;20199;-77
2023/07/22 02:15:16;;;;;;;5.80;4.00;;;15.00;78.70;;;;;;5065973;28;20211;-77
2023/07/22 02:17:41;;;;;;;4.60;2.90;;;15.00;78.60;;;;;;5055015;28;20193;-77
2023/07/22 02:20:08;;;;;;;6.10;3.47;;;15.00;78.60;;;;;;5047331;28;20219;-76
2023/07/22 02:22:34;;;;;;;4.20;3.17;;;15.00;78.60;;;;;;5050663;28;20192;-77
2023/07/22 02:25:00;;;;;;;3.57;2.77;;;14.90;78.40;;;;;;5052172;28;20442;-77
2023/07/22 02:27:25;;;;;;;4.40;3.20;;;14.90;78.90;;;;;;5052642;28;20199;-77
2023/07/22 02:29:52;;;;;;;6.33;3.40;;;14.80;79.00;;;;;;5048276;28;20263;-78
2023/07/22 02:32:17;;;;;;;6.00;3.30;;;14.80;79.30;;;;;;5045371;28;20248;-76
2023/07/22 02:34:43;;;;;;;5.23;3.20;;;14.70;79.50;;;;;;5051383;28;20431;-77
2023/07/22 02:37:08;;;;;;;5.67;3.00;;;14.70;79.70;;;;;;5052589;28;20195;-77
2023/07/22 02:39:34;;;;;;;5.83;3.30;;;14.80;79.20;;;;;;5048847;28;20639;-78
2023/07/22 02:42:01;;;;;;;5.83;3.50;;;14.70;79.20;;;;;;5045889;28;20191;-77
2023/07/22 02:44:27;;;;;;;6.63;3.50;;;14.70;79.00;;;;;;5048249;28;20193;-77
2023/07/22 02:46:52;;;;;;;5.63;3.30;;;14.70;79.00;;;;;;5053215;28;20427;-78
2023/07/22 02:49:18;;;;;;;5.67;3.40;;;14.60;79.20;;;;;;5052201;28;20813;-77
2023/07/22 02:51:44;;;;;;;5.60;2.87;;;14.50;79.60;;;;;;5050561;28;20212;-78
2023/07/22 02:54:09;;;;;;;6.33;2.80;;;14.50;80.00;;;;;;5041997;28;20688;-78
2023/07/22 02:56:35;;;;;;;8.13;3.60;;;14.60;80.00;;;;;;5051276;28;20199;-79
2023/07/22 02:59:01;;;;;;;5.33;3.30;;;14.60;79.70;;;;;;5052590;28;20189;-77
2023/07/22 03:01:26;;;;;;;7.60;4.10;;;14.60;79.90;;;;;;5050332;28;20216;-76
2023/07/22 03:03:52;;;;;;;5.80;3.37;;;14.60;79.60;;;;;;5045494;28;20200;-78
2023/07/22 03:06:18;;;;;;;8.50;3.90;;;14.60;79.30;;;;;;5048139;28;20256;-76
2023/07/22 03:08:44;;;;;;;5.57;3.50;;;14.50;79.60;;;;;;5041633;28;20212;-77
2023/07/22 03:11:10;;;;;;;5.90;3.70;;;14.60;79.60;;;;;;5054267;28;20556;-78
2023/07/22 03:13:36;;;;;;;6.33;3.30;;;14.70;79.30;;;;;;5047394;28;20432;-77
2023/07/22 03:16:04;;;;;;;6.23;3.20;;;14.70;79.20;;;;;;5047882;28;20239;-77
2023/07/22 03:18:31;;;;;;;8.37;3.47;;;14.60;79.20;;;;;;5046208;28;20293;-78
2023/07/22 03:20:57;;;;;;;5.20;3.20;;;14.60;79.50;;;;;;5045008;28;21040;-78
2023/07/22 03:23:23;;;;;;;4.60;3.20;;;14.50;79.50;;;;;;5039952;28;20432;-78
2023/07/22 03:25:48;;;;;;;6.37;3.73;;;14.50;80.00;;;;;;5049221;28;20442;-77
2023/07/22 03:28:14;;;;;;;6.13;3.47;;;14.60;79.70;;;;;;5042642;28;20243;-78
2023/07/22 03:30:40;;;;;;;4.43;2.90;;;14.60;79.50;;;;;;5042786;28;20216;-76
2023/07/22 03:33:05;;;;;;;4.23;2.83;;;14.70;79.20;;;;;;5049340;28;20547;-77
2023/07/22 03:35:32;;;;;;;8.60;3.30;;;14.70;79.00;;;;;;5052671;28;20200;-77
2023/07/22 03:37:58;;;;;;;4.53;3.00;;;14.70;78.70;;;;;;5052127;28;20283;-76
2023/07/22 03:40:28;;;;;;;5.20;3.30;;;14.70;78.60;;;;;;5047231;28;20489;-77
2023/07/22 03:42:55;;;;;;;7.50;4.00;;;14.70;78.60;;;;;;5052475;28;20228;-77
2023/07/22 03:45:21;;;;;;;6.00;4.00;;;14.60;78.70;;;;;;5060863;28;20466;-78
2023/07/22 03:47:52;;;;;;;5.50;3.80;;;14.60;78.70;;;;;;5057157;28;20751;-78
2023/07/22 03:50:18;;;;;;;5.57;3.50;;;14.50;79.20;;;;;;5046305;28;20500;-78
2023/07/22 03:52:44;;;;;;;6.57;3.37;;;14.50;79.50;;;;;;5049056;28;20428;-78
2023/07/22 03:55:09;;;;;;;5.50;3.20;;;14.40;79.70;;;;;;5058036;28;20211;-78
2023/07/22 03:57:35;;;;;;;7.83;3.43;;;14.40;79.50;;;;;;5063543;28;20197;-79
2023/07/22 04:00:01;;;;;;;5.47;3.73;;;14.30;79.50;;;;;;5056073;28;20259;-78
2023/07/22 04:02:26;;;;;;;5.37;3.43;;;14.20;79.70;;;;;;5055385;28;20189;-78
2023/07/22 04:04:54;;;;;;;5.27;3.47;;;14.30;80.00;;;;;;5051387;28;20674;-77
2023/07/22 04:07:21;;;;;;;5.47;3.10;;;14.30;80.00;;;;;;5047673;28;20190;-76
2023/07/22 04:09:47;;;;;;;5.90;3.13;;;14.50;79.50;;;;;;5045320;28;20532;-76
2023/07/22 04:12:13;;;;;;;7.00;3.20;;;14.50;79.20;;;;;;5047886;28;20480;-77
2023/07/22 04:14:40;;;;;;;6.70;3.13;;;14.60;78.70;;;;;;5046562;28;21327;-75
2023/07/22 04:17:05;;;;;;;4.60;2.80;;;14.80;78.10;;;;;;5048308;28;20560;-76
2023/07/22 04:19:31;;;;;;;5.40;3.00;;;14.80;77.80;;;;;;5046397;28;20515;-77
2023/07/22 04:21:57;;;;;;;5.03;2.70;;;14.80;77.80;;;;;;5045932;28;20213;-76
2023/07/22 04:24:24;;;;;;;8.30;3.27;;;14.80;77.70;;;;;;5048816;28;20214;-78
2023/07/22 04:26:50;;;;;;;4.60;3.13;;;14.80;77.40;;;;;;5049657;28;20434;-78
2023/07/22 04:29:16;;;;;;;5.57;3.20;;;14.90;77.40;;;;;;5053140;28;20489;-79
2023/07/22 04:31:42;;;;;;;6.80;3.43;;;14.90;77.40;;;;;;5054317;28;20541;-79
2023/07/22 04:34:08;;;;;;;5.43;3.30;;;15.00;77.10;;;;;;5055186;28;20202;-78
2023/07/22 04:36:34;;;;;;;7.30;3.40;;;15.10;76.70;;;;;;5056118;28;20431;-78
2023/07/22 04:39:00;;;;;;;8.80;3.73;;;15.10;76.40;;;;;;5048267;28;20994;-77
2023/07/22 04:41:26;;;;;;;4.67;2.93;;;15.10;75.90;;;;;;5033760;28;20286;-74
2023/07/22 04:43:51;;;;;;;6.07;3.33;;;15.10;76.10;;;;;;5044816;28;20533;-75
2023/07/22 04:46:17;;;;;;;7.87;3.80;;;15.00;76.20;;;;;;5046209;28;20297;-75
2023/07/22 04:48:43;;;;;;;5.57;3.40;;;15.00;76.40;;;;;;5047303;28;20206;-74
2023/07/22 04:51:08;;;;;;;5.77;3.37;;;14.90;76.80;;;;;;5036180;28;21114;-73
2023/07/22 04:53:34;;;;;;;4.70;2.97;;;14.80;77.00;;;;;;5047080;28;20190;-73
2023/07/22 04:56:00;;;;;;;5.00;3.03;;;14.80;77.40;;;;;;5042203;28;20256;-72
2023/07/22 04:58:25;;;;;;;5.17;3.20;;;14.80;77.40;;;;;;5044275;28;20189;-72
2023/07/22 05:00:51;;;;;;;7.37;3.07;;;14.80;77.70;;;;;;5038962;28;20217;-73
2023/07/22 05:03:18;;;;;;;6.27;3.33;;;14.80;77.40;;;;;;5048497;28;20744;-73
2023/07/22 05:05:44;;;;;;;6.43;3.00;;;14.90;77.70;;;;;;5047405;28;20260;-74
2023/07/22 05:08:10;;;;;;;7.60;3.53;;;15.00;77.30;;;;;;5050804;28;20437;-74
2023/07/22 05:10:37;;;;;;;8.20;3.23;;;15.00;77.30;;;;;;5040766;28;20575;-75
2023/07/22 05:13:03;;;;;;;5.00;2.90;;;15.20;77.00;;;;;;5044418;28;20419;-74
2023/07/22 05:15:29;;;;;;;7.23;3.80;;;15.20;76.70;;;;;;5043957;28;20789;-73
2023/07/22 05:17:54;;;;;;;9.20;3.80;;;15.20;76.70;;;;;;5046988;28;20690;-74
2023/07/22 05:20:20;;;;;;;5.50;3.23;;;15.20;76.50;;;;;;5041846;28;20201;-74
2023/07/22 05:25:26;;;;;;;5.70;3.30;;;15.40;76.10;;;;;;5049063;28;20605;-74
2023/07/22 05:27:52;;;;;;;5.70;3.10;;;15.50;75.40;;;;;;5053361;28;20450;-72
2023/07/22 05:30:17;;;;;;;4.33;2.90;;;15.50;75.40;;;;;;5046360;28;20383;-73
2023/07/22 05:32:43;;;;;;;4.13;3.10;;;15.60;75.50;;;;;;5047052;28;20269;-75
2023/07/22 05:35:08;;;;;;;4.53;3.10;;;15.80;74.80;;;;;;5046769;28;20198;-75
2023/07/22 05:37:34;;;;;;;5.10;3.07;;;15.80;74.60;;;;;;5047136;28;20291;-74
2023/07/22 05:40:01;;;;;;;6.83;3.50;;;15.80;74.50;;;;;;5048379;28;20215;-72
2023/07/22 05:42:27;;;;;;;4.83;3.23;;;15.80;74.20;;;;;;5046343;28;20197;-72
2023/07/22 05:44:54;;;;;;;4.97;2.80;;;15.70;74.50;;;;;;5046682;28;20903;-71
2023/07/22 05:47:20;;;;;;;5.50;3.10;;;15.80;74.80;;;;;;5051011;28;20526;-72
2023/07/22 05:49:45;;;;;;;5.23;3.47;;;15.90;74.50;;;;;;5046864;28;20580;-73
2023/07/22 05:52:11;;;;;;;5.53;3.13;;;16.00;74.00;;;;;;5042717;28;20187;-71
2023/07/22 05:54:36;;;;;;;5.10;3.17;;;16.00;73.90;;;;;;5046552;28;20236;-72
2023/07/22 05:57:03;;;;;;;4.13;2.93;;;16.20;73.70;;;;;;5031798;28;20196;-70
2023/07/22 05:59:30;;;;;;;7.60;3.30;;;16.20;73.50;;;;;;5045157;28;20210;-71
2023/07/22 06:01:55;;;;;;;5.30;3.07;;;16.30;73.50;;;;;;5037508;28;20484;-73
2023/07/22 06:04:21;;;;;;;6.50;3.10;;;16.40;73.30;;;;;;5044287;28;21245;-70
2023/07/22 06:06:46;;;;;;;8.37;3.60;;;16.50;72.90;;;;;;5050678;28;20199;-73
2023/07/22 06:09:12;;;;;;;8.03;3.77;;;16.60;73.00;;;;;;5046250;28;20232;-72
2023/07/22 06:11:37;;;;;;;11.57;4.23;;;16.70;73.60;;;;;;5046309;28;20226;-71
2023/07/22 06:14:03;;;;;;;8.40;4.37;;;16.70;73.70;;;;;;5049038;28;20181;-71
2023/07/22 06:16:29;;;;;;;6.87;4.47;;;16.60;73.90;;;;;;5056756;28;20266;-71
2023/07/22 06:18:54;;;;;;;6.60;3.83;;;16.70;73.60;;;;;;5053254;28;20201;-69
2023/07/22 06:21:20;;;;;;;8.93;3.63;;;16.90;73.60;;;;;;5053921;28;20232;-69
2023/07/22 06:23:46;;;;;;;6.50;4.10;;;17.10;72.40;;;;;;5051283;28;20190;-70
2023/07/22 06:26:11;;;;;;;6.67;3.80;;;17.30;71.40;;;;;;5061796;28;20273;-71
2023/07/22 06:28:37;;;;;;;8.70;4.17;;;17.20;71.70;;;;;;5051778;28;20435;-70
2023/07/22 06:31:02;;;;;;;10.70;4.40;;;17.00;72.30;;;;;;5044046;28;20585;-69
2023/07/22 06:33:28;;;;;;;10.43;4.27;;;17.10;72.60;;;;;;5045919;28;20294;-69
2023/07/22 06:35:54;;;;;;;5.83;3.87;;;17.20;72.30;;;;;;5059824;28;20196;-71
2023/07/22 06:38:19;;;;;;;5.47;3.63;;;17.40;72.30;;;;;;5049293;28;20204;-72
2023/07/22 06:40:45;;;;;;;4.67;3.67;;;17.60;71.10;;;;;;5039625;28;20580;-70
2023/07/22 06:43:10;;;;;;;6.30;3.50;;;17.60;70.80;;;;;;5045860;28;20216;-72
2023/07/22 06:45:36;;;;;;;5.17;3.73;;;17.40;71.30;;;;;;5042368;28;21239;-72
2023/07/22 06:48:02;;;;;;;5.93;4.10;;;17.40;71.40;;;;;;5044335;28;20186;-70
2023/07/22 06:50:28;;;;;;;5.80;3.80;;;17.50;71.40;;;;;;5041542;28;20520;-72
2023/07/22 06:52:53;;;;;;;7.17;3.87;;;17.50;71.30;;;;;;5041219;28;20448;-73
2023/07/22 06:55:20;;;;;;;6.03;3.87;;;17.60;71.10;;;;;;5041666;28;20196;-73
2023/07/22 06:57:48;;;;;;;10.60;3.80;;;17.70;70.70;;;;;;5051055;28;20326;-73
2023/07/22 07:00:13;;;;;;;10.83;3.73;;;17.90;70.70;;;;;;5045266;28;20518;-74
2023/07/22 07:02:39;;;;;;;7.27;3.90;;;18.20;69.90;;;;;;5034632;28;20466;-75
2023/07/22 07:05:05;;;;;;;10.07;3.83;;;18.30;69.20;;;;;;5040331;28;20221;-77
2023/07/22 07:07:32;;;;;;;13.90;5.63;;;18.30;69.10;;;;;;5039203;28;20194;-74
2023/07/22 07:09:58;;;;;;;10.23;7.70;;;18.40;69.10;;;;;;5038633;28;20496;-75
2023/07/22 07:12:23;;;;;;;21.67;13.33;;;18.40;68.80;;;;;;5038063;28;20783;-73
2023/07/22 07:14:53;;;;;;;6.13;4.10;;;18.40;68.80;;;;;;5039161;28;20234;-73
2023/07/22 07:17:19;;;;;;;7.30;4.50;;;18.60;68.50;;;;;;5037375;28;20305;-75
2023/07/22 07:19:44;;;;;;;8.70;4.40;;;18.80;68.50;;;;;;5040941;28;20488;-73
2023/07/22 07:22:10;;;;;;;6.63;4.60;;;19.00;67.60;;;;;;5042841;28;20187;-73
2023/07/22 07:24:36;;;;;;;6.87;4.00;;;19.10;67.50;;;;;;5041817;28;20279;-74
2023/07/22 07:27:02;;;;;;;8.20;3.67;;;19.20;67.00;;;;;;5044350;28;20189;-74
2023/07/22 07:29:27;;;;;;;7.07;3.37;;;19.40;66.30;;;;;;5041825;28;21025;-73
2023/07/22 07:31:53;;;;;;;7.53;3.90;;;19.50;66.10;;;;;;5046612;28;20638;-75
2023/07/22 07:34:18;;;;;;;5.40;3.47;;;19.50;66.30;;;;;;5049138;28;20195;-75
2023/07/22 07:36:44;;;;;;;6.07;3.70;;;19.50;66.40;;;;;;5049717;28;20311;-75
2023/07/22 07:39:09;;;;;;;12.00;7.10;;;19.70;66.10;;;;;;5048465;28;20262;-75
2023/07/22 07:41:35;;;;;;;7.97;4.53;;;19.80;65.10;;;;;;5037152;28;20214;-74
2023/07/22 07:44:01;;;;;;;5.70;4.13;;;19.90;65.30;;;;;;5039625;28;20270;-73
2023/07/22 07:46:28;;;;;;;5.13;3.60;;;20.00;65.80;;;;;;5044970;28;20196;-75
2023/07/22 07:48:55;;;;;;;5.33;3.87;;;19.80;65.70;;;;;;5046534;28;20262;-75
2023/07/22 07:51:23;;;;;;;5.87;3.77;;;19.70;66.40;;;;;;5038551;28;20471;-73
2023/07/22 07:53:50;;;;;;;8.93;4.20;;;19.90;66.30;;;;;;5023408;28;20441;-74
2023/07/22 07:56:17;;;;;;;8.93;3.90;;;20.00;66.10;;;;;;5046333;28;20461;-73
2023/07/22 07:58:44;;;;;;;8.73;3.07;;;20.20;64.80;;;;;;5043844;28;20959;-75
2023/07/22 08:01:10;;;;;;;5.10;3.13;;;20.40;64.40;;;;;;5041764;28;20474;-75
2023/07/22 08:03:38;;;;;;;4.70;3.23;;;20.60;63.10;;;;;;5046327;28;20419;-75
2023/07/22 08:06:04;;;;;;;3.97;2.33;;;20.70;63.50;;;;;;5038864;28;20620;-75
2023/07/22 08:08:30;;;;;;;5.30;3.27;;;20.80;62.60;;;;;;5045786;28;20433;-75
2023/07/22 08:11:00;;;;;;;4.10;2.70;;;21.00;61.70;;;;;;5040108;28;20225;-73
2023/07/22 08:13:27;;;;;;;7.97;3.70;;;21.20;61.00;;;;;;5039391;28;20437;-72
2023/07/22 08:15:53;;;;;;;3.40;2.23;;;21.30;59.10;;;;;;5049402;28;20438;-75
2023/07/22 08:18:19;;;;;;;2.70;2.00;;;21.40;58.70;;;;;;5043753;28;20435;-74
2023/07/22 08:20:47;;;;;;;5.93;2.80;;;21.60;58.50;;;;;;5044934;28;20906;-73
2023/07/22 08:23:12;;;;;;;3.73;2.70;;;21.60;58.20;;;;;;5032854;28;20653;-73
2023/07/22 08:25:38;;;;;;;3.00;2.20;;;21.60;58.80;;;;;;5045439;28;20444;-74
2023/07/22 08:28:03;;;;;;;4.60;2.70;;;21.60;58.40;;;;;;5047816;28;20205;-74
2023/07/22 08:30:29;;;;;;;6.23;2.97;;;21.70;58.00;;;;;;5044618;28;20223;-73
2023/07/22 08:32:55;;;;;;;6.40;2.60;;;21.80;57.20;;;;;;5040895;28;20273;-74
2023/07/22 08:35:22;;;;;;;4.17;2.07;;;21.90;57.60;;;;;;5046431;28;20203;-73
2023/07/22 08:37:47;;;;;;;3.07;1.90;;;22.10;56.50;;;;;;5048428;28;20194;-73
2023/07/22 08:40:13;;;;;;;4.17;1.97;;;22.00;56.50;;;;;;5042245;28;20494;-73
2023/07/22 08:42:41;;;;;;;3.30;2.30;;;22.00;56.60;;;;;;5041149;28;20952;-73
2023/07/22 08:45:10;;;;;;;2.87;2.33;;;22.10;56.40;;;;;;5041394;28;20476;-73
2023/07/22 08:47:43;;;;;;;5.30;2.60;;;22.20;56.00;;;;;;5040652;28;20435;-73
2023/07/22 08:50:11;;;;;;;2.63;1.80;;;22.40;54.90;;;;;;5037719;28;20499;-73
2023/07/22 08:52:37;;;;;;;2.77;1.97;;;22.50;54.40;;;;;;5039638;28;20436;-73
2023/07/22 08:55:04;;;;;;;3.73;1.97;;;22.40;55.00;;;;;;5043045;28;20627;-72
2023/07/22 08:57:30;;;;;;;3.20;2.23;;;22.50;54.00;;;;;;5041027;28;20439;-74
2023/07/22 08:59:57;;;;;;;3.57;2.60;;;22.60;53.80;;;;;;5035919;28;20506;-72
2023/07/22 09:02:24;;;;;;;4.47;2.40;;;22.80;53.40;;;;;;5039491;28;20782;-73
2023/07/22 09:04:50;;;;;;;2.27;2.10;;;22.70;51.60;;;;;;5047740;28;20975;-72
2023/07/22 09:07:17;;;;;;;3.50;2.10;;;22.90;50.30;;;;;;5044411;28;20521;-73
2023/07/22 09:09:45;;;;;;;6.07;2.80;;;23.20;49.80;;;;;;5048384;28;20231;-75
2023/07/22 09:12:12;;;;;;;3.53;2.13;;;23.10;49.90;;;;;;5047444;28;20978;-73
2023/07/22 09:14:39;;;;;;;3.60;2.07;;;23.30;48.90;;;;;;5049082;28;20442;-74
2023/07/22 09:17:05;;;;;;;5.27;2.30;;;23.40;49.00;;;;;;5047138;28;20440;-72
2023/07/22 09:19:31;;;;;;;3.70;2.10;;;23.40;48.60;;;;;;5049113;28;20924;-73
2023/07/22 09:21:58;;;;;;;4.40;2.43;;;23.30;47.70;;;;;;5042754;28;20462;-75
2023/07/22 09:24:25;;;;;;;6.20;2.20;;;23.10;48.60;;;;;;5043346;28;20619;-76
2023/07/22 09:26:51;;;;;;;3.73;2.30;;;23.10;49.40;;;;;;5051871;28;20446;-75
2023/07/22 09:29:17;;;;;;;3.90;2.47;;;23.00;50.30;;;;;;5052210;28;20477;-73
2023/07/22 09:31:52;;;;;;;4.93;2.40;;;22.80;50.60;;;;;;5049296;28;20544;-73
2023/07/22 09:34:18;;;;;;;6.50;2.80;;;23.00;50.70;;;;;;5048060;28;20502;-74
2023/07/22 09:36:55;;;;;;;2.40;1.57;;;22.90;50.70;;;;;;5043842;28;20453;-74
2023/07/22 09:39:22;;;;;;;4.47;2.10;;;23.10;50.30;;;;;;5028693;28;20423;-74
2023/07/22 09:41:48;;;;;;;4.67;2.70;;;23.20;50.10;;;;;;5046041;28;20480;-75
2023/07/22 09:44:14;;;;;;;7.47;2.73;;;23.20;49.90;;;;;;5042194;28;20421;-75
2023/07/22 09:46:40;;;;;;;3.90;2.37;;;23.30;50.10;;;;;;5041357;28;20501;-75
2023/07/22 09:49:08;;;;;;;5.33;2.13;;;23.50;49.40;;;;;;5050752;28;20216;-73
2023/07/22 09:51:40;;;;;;;3.67;2.10;;;23.60;49.30;;;;;;5039632;28;20840;-74
2023/07/22 09:54:07;;;;;;;3.20;2.20;;;23.50;49.70;;;;;;5047417;28;20433;-73
2023/07/22 09:56:44;;;;;;;3.00;2.03;;;23.40;50.30;;;;;;5054872;28;20523;-72
2023/07/22 09:59:10;;;;;;;4.40;2.43;;;23.50;49.50;;;;;;5053853;28;20459;-74
2023/07/22 10:01:39;;;;;;;3.77;2.23;;;23.40;49.80;;;;;;5050949;28;20480;-74
2023/07/22 10:04:05;;;;;;;3.93;1.73;;;23.50;50.30;;;;;;5055866;28;21193;-73
2023/07/22 10:06:32;;;;;;;3.47;2.10;;;23.90;49.00;;;;;;5058642;28;20476;-75
2023/07/22 10:09:07;;;;;;;4.20;2.00;;;24.20;47.90;;;;;;5051549;28;20501;-73
2023/07/22 10:11:32;;;;;;;4.67;2.27;;;24.30;46.90;;;;;;5043374;28;20497;-75
2023/07/22 10:13:59;;;;;;;4.57;2.20;;;24.60;46.30;;;;;;5048095;28;20476;-74
2023/07/22 10:16:25;;;;;;;3.73;2.40;;;24.30;46.60;;;;;;5048396;28;20198;-73
2023/07/22 10:18:51;;;;;;;6.13;2.40;;;24.40;46.90;;;;;;5046036;28;20450;-75
2023/07/22 10:21:18;;;;;;;3.43;1.97;;;24.80;46.20;;;;;;5041516;28;20483;-74
2023/07/22 10:23:47;;;;;;;3.20;2.20;;;24.90;45.80;;;;;;5046938;28;20438;-74
2023/07/22 10:26:18;;;;;;;4.07;2.13;;;24.50;45.70;;;;;;5049465;28;20467;-73
2023/07/22 10:28:47;;;;;;;6.97;2.40;;;24.70;45.30;;;;;;5047112;28;20458;-74
2023/07/22 10:31:14;;;;;;;4.80;2.10;;;24.50;46.10;;;;;;5045875;28;20505;-74
2023/07/22 10:33:39;;;;;;;3.17;1.90;;;24.10;45.90;;;;;;5045325;28;21224;-75
2023/07/22 10:36:13;;;;;;;3.37;2.50;;;24.30;45.80;;;;;;5045308;28;20534;-74
2023/07/22 10:38:39;;;;;;;3.23;1.70;;;24.10;46.20;;;;;;5051063;28;20258;-73
2023/07/22 10:41:18;;;;;;;2.90;1.90;;;24.50;45.80;;;;;;5049705;28;20504;-72
2023/07/22 10:43:59;;;;;;;3.47;1.63;;;24.70;44.30;;;;;;5053878;28;20428;-73
2023/07/22 10:46:40;;;;;;;4.77;2.27;;;24.70;44.60;;;;;;5049335;28;20453;-73
2023/07/22 10:49:13;;;;;;;3.57;1.93;;;24.90;44.50;;;;;;5045329;28;20461;-73
2023/07/22 10:51:39;;;;;;;2.67;2.20;;;25.40;43.80;;;;;;5042280;28;20518;-74
2023/07/22 10:54:30;;;;;;;3.77;1.90;;;25.60;42.70;;;;;;5038706;28;20438;-73
2023/07/22 10:56:56;;;;;;;4.47;2.30;;;25.70;43.20;;;;;;5048254;28;20452;-71
2023/07/22 10:59:26;;;;;;;2.70;2.00;;;25.80;42.40;;;;;;5050271;28;20498;-74
2023/07/22 11:01:53;;;;;;;2.30;1.87;;;25.60;43.40;;;;;;5036987;28;20468;-71
2023/07/22 11:04:32;;;;;;;2.83;1.80;;;25.50;43.20;;;;;;5040422;28;20457;-73
2023/07/22 11:06:59;;;;;;;2.40;1.80;;;25.60;43.20;;;;;;5043255;28;20441;-73
2023/07/22 11:09:33;;;;;;;3.30;2.00;;;25.70;42.40;;;;;;5043196;28;20561;-72
2023/07/22 11:12:04;;;;;;;5.43;2.63;;;25.40;43.40;;;;;;5032585;28;20503;-72
2023/07/22 11:14:30;;;;;;;3.33;2.27;;;25.50;43.40;;;;;;5043489;28;20512;-74
2023/07/22 11:17:05;;;;;;;2.80;1.97;;;25.40;42.80;;;;;;5039569;28;20894;-74
2023/07/22 11:19:33;;;;;;;4.30;2.30;;;25.20;43.50;;;;;;5044078;28;20418;-72
2023/07/22 11:21:59;;;;;;;3.43;2.40;;;24.70;44.50;;;;;;5037665;28;20970;-74
2023/07/22 11:24:24;;;;;;;3.53;1.97;;;24.40;45.70;;;;;;5049202;28;20530;-72
2023/07/22 11:26:51;;;;;;;4.37;2.93;;;24.50;46.50;;;;;;5044677;28;20552;-72
2023/07/22 11:29:17;;;;;;;3.83;2.60;;;24.60;46.60;;;;;;5041714;28;21061;-74
2023/07/22 11:31:45;;;;;;;2.90;2.07;;;24.80;46.90;;;;;;5044971;28;20467;-73
2023/07/22 11:34:20;;;;;;;4.50;2.50;;;24.90;46.50;;;;;;5050478;28;20436;-74
2023/07/22 11:36:47;;;;;;;4.57;2.50;;;24.80;46.60;;;;;;5051759;28;20514;-72
2023/07/22 11:39:16;;;;;;;3.77;2.30;;;24.90;46.10;;;;;;5047481;28;20515;-72
2023/07/22 11:41:43;;;;;;;4.03;2.33;;;24.80;46.90;;;;;;5044602;28;20537;-72
2023/07/22 11:44:12;;;;;;;4.27;2.60;;;25.00;47.10;;;;;;5043712;28;20530;-72
2023/07/22 11:47:03;;;;;;;6.03;2.10;;;25.20;46.90;;;;;;5048697;28;20444;-71
2023/07/22 11:49:34;;;;;;;6.10;2.83;;;25.50;45.90;;;;;;5048637;28;20483;-73
2023/07/22 11:52:18;;;;;;;3.00;2.30;;;25.80;45.50;;;;;;5050229;28;20448;-73
2023/07/22 11:54:45;;;;;;;3.60;2.23;;;26.10;44.10;;;;;;5043740;28;20429;-74
2023/07/22 11:57:20;;;;;;;4.50;2.70;;;25.90;45.70;;;;;;5030086;28;20495;-72
2023/07/22 11:59:46;;;;;;;3.33;2.50;;;26.20;45.00;;;;;;5050301;28;20438;-73
2023/07/22 12:02:19;;;;;;;4.53;2.83;;;26.00;44.60;;;;;;5041492;28;20533;-74
2023/07/22 12:05:00;;;;;;;3.43;2.60;;;25.60;45.30;;;;;;5048078;28;20765;-73
2023/07/22 12:07:28;;;;;;;4.97;2.67;;;25.70;44.60;;;;;;5049915;28;20429;-72
2023/07/22 12:09:56;;;;;;;4.37;2.17;;;25.70;45.10;;;;;;5044937;28;20488;-73
2023/07/22 12:12:35;;;;;;;3.43;2.13;;;25.50;45.90;;;;;;5038069;28;20939;-72
2023/07/22 12:15:08;;;;;;;3.13;2.43;;;25.50;45.90;;;;;;5043356;28;20952;-75
2023/07/22 12:17:47;;;;;;;3.00;2.10;;;25.20;46.30;;;;;;5045809;28;20806;-71
2023/07/22 12:20:13;;;;;;;3.90;2.33;;;25.10;46.50;;;;;;5038041;28;20963;-74
2023/07/22 12:22:39;;;;;;;3.73;2.20;;;25.00;46.20;;;;;;5035041;28;20454;-71
2023/07/22 12:25:06;;;;;;;3.37;2.13;;;24.90;47.10;;;;;;5040716;28;20795;-74
2023/07/22 12:27:31;;;;;;;4.00;2.60;;;25.40;45.80;;;;;;5050398;28;20248;-72
2023/07/22 12:29:57;;;;;;;5.10;3.30;;;25.80;45.30;;;;;;5046172;28;21441;-73
2023/07/22 12:32:22;;;;;;;4.57;2.90;;;26.00;45.10;;;;;;5039618;28;20584;-73
2023/07/22 12:34:48;;;;;;;2.93;2.13;;;26.10;44.50;;;;;;5047757;28;20188;-74
2023/07/22 12:37:13;;;;;;;3.33;2.23;;;27.00;43.20;;;;;;5047528;28;20250;-75
2023/07/22 12:39:39;;;;;;;3.90;2.23;;;26.90;41.90;;;;;;5045346;28;20210;-72
2023/07/22 12:42:05;;;;;;;3.60;2.40;;;26.70;42.20;;;;;;5045687;28;20180;-72
2023/07/22 12:44:30;;;;;;;4.63;2.70;;;26.70;41.20;;;;;;5049039;28;20198;-72
2023/07/22 12:46:56;;;;;;;7.07;2.30;;;26.30;41.80;;;;;;5048411;28;20199;-72